createdAt,value
2023-03-27T00:00:01.383Z,98506.41
2023-03-27T00:00:16.512Z,98506.13
2023-03-27T00:00:29.106Z,98510.28
2023-03-27T00:00:42.104Z,98506.81
2023-03-27T00:00:56.693Z,98506.13
2023-03-27T00:01:11.755Z,98510.63
2023-03-27T00:01:23.761Z,98508.81
2023-03-27T00:01:35.684Z,98511.41
2023-03-27T00:01:47.706Z,98514.94
2023-03-27T00:01:59.934Z,98513.34
2023-03-27T00:02:11.938Z,98515.19
2023-03-27T00:02:24.091Z,98513.19
2023-03-27T00:02:37.760Z,98515.69
2023-03-27T00:02:50.009Z,98518.28
2023-03-27T00:03:03.132Z,98517.72
2023-03-27T00:03:15.764Z,98519.72
2023-03-27T00:03:29.633Z,98521.31
2023-03-27T00:03:42.737Z,98529.00
2023-03-27T00:03:55.513Z,98526.56
2023-03-27T00:04:09.106Z,98530.84
2023-03-27T00:04:21.385Z,98526.66
2023-03-27T00:04:34.019Z,98529.16
2023-03-27T00:04:46.284Z,98525.69
2023-03-27T00:04:58.159Z,98524.91
2023-03-27T00:05:10.198Z,98529.22
2023-03-27T00:05:22.476Z,98537.13
2023-03-27T00:05:34.453Z,98531.38
2023-03-27T00:05:46.540Z,98533.00
2023-03-27T00:06:03.924Z,98534.75
2023-03-27T00:06:18.600Z,98535.66
2023-03-27T00:06:34.360Z,98539.03
2023-03-27T00:06:48.897Z,98534.47
2023-03-27T00:07:00.780Z,98535.44
2023-03-27T00:07:12.702Z,98536.19
2023-03-27T00:07:24.720Z,98536.19
2023-03-27T00:07:37.081Z,98541.19
2023-03-27T00:07:53.858Z,98542.00
2023-03-27T00:08:09.304Z,98546.44
2023-03-27T00:08:21.325Z,98538.91
2023-03-27T00:08:33.663Z,98545.59
2023-03-27T00:08:48.719Z,98542.06
2023-03-27T00:09:02.807Z,98543.75
2023-03-27T00:09:16.959Z,98545.56
2023-03-27T00:09:29.833Z,98547.00
2023-03-27T00:09:44.155Z,98546.13
2023-03-27T00:09:57.408Z,98552.91
2023-03-27T00:10:10.066Z,98547.00
2023-03-27T00:10:23.963Z,98544.44
2023-03-27T00:10:37.109Z,98546.19
2023-03-27T00:10:49.070Z,98541.84
2023-03-27T00:11:01.757Z,98542.06
2023-03-27T00:11:14.853Z,98541.97
2023-03-27T00:11:27.213Z,98545.34
2023-03-27T00:11:39.097Z,98547.88
2023-03-27T00:11:51.013Z,98553.09
2023-03-27T00:12:03.516Z,98554.31
2023-03-27T00:12:15.444Z,98549.03
2023-03-27T00:12:27.914Z,98553.44
2023-03-27T00:12:39.919Z,98553.13
2023-03-27T00:12:52.025Z,98550.28
2023-03-27T00:13:05.800Z,98557.03
2023-03-27T00:13:17.858Z,98558.09
2023-03-27T00:13:30.716Z,98553.75
2023-03-27T00:13:50.462Z,98546.78
2023-03-27T00:14:03.079Z,98561.41
2023-03-27T00:14:16.025Z,98558.59
2023-03-27T00:14:28.530Z,98558.59
2023-03-27T00:14:41.264Z,98546.25
2023-03-27T00:14:53.704Z,98559.84
2023-03-27T00:15:06.150Z,98561.75
2023-03-27T00:15:18.351Z,98572.22
2023-03-27T00:15:31.592Z,98563.88
2023-03-27T00:15:44.455Z,98564.88
2023-03-27T00:15:57.426Z,98559.66
2023-03-27T00:16:09.758Z,98568.63
2023-03-27T00:16:26.405Z,98565.88
2023-03-27T00:16:38.640Z,98552.31
2023-03-27T00:16:51.064Z,98559.78
2023-03-27T00:17:04.960Z,98570.03
2023-03-27T00:17:17.236Z,98567.91
2023-03-27T00:17:30.123Z,98568.59
2023-03-27T00:17:44.139Z,98567.38
2023-03-27T00:17:56.226Z,98568.25
2023-03-27T00:18:09.987Z,98566.41
2023-03-27T00:18:22.589Z,98565.78
2023-03-27T00:18:34.632Z,98563.78
2023-03-27T00:18:46.935Z,98572.41
2023-03-27T00:18:58.907Z,98572.41
2023-03-27T00:19:11.737Z,98567.94
2023-03-27T00:19:24.946Z,98571.47
2023-03-27T00:19:36.894Z,98575.47
2023-03-27T00:19:48.992Z,98572.22
2023-03-27T00:20:00.936Z,98567.25
2023-03-27T00:20:18.183Z,98574.31
2023-03-27T00:20:37.136Z,98571.69
2023-03-27T00:20:49.173Z,98583.91
2023-03-27T00:21:02.969Z,98576.97
2023-03-27T00:21:14.904Z,98577.47
2023-03-27T00:21:27.023Z,98574.84
2023-03-27T00:21:39.200Z,98577.16
2023-03-27T00:21:51.106Z,98570.84
2023-03-27T00:22:03.765Z,98580.41
2023-03-27T00:22:15.674Z,98584.34
2023-03-27T00:22:29.971Z,98576.13
2023-03-27T00:22:42.252Z,98584.88
2023-03-27T00:22:55.577Z,98574.63
2023-03-27T00:23:07.536Z,98574.41
2023-03-27T00:23:22.407Z,98582.88
2023-03-27T00:23:34.675Z,98580.94
2023-03-27T00:23:46.747Z,98586.25
2023-03-27T00:24:00.400Z,98583.69
2023-03-27T00:24:15.900Z,98587.28
2023-03-27T00:24:27.848Z,98580.56
2023-03-27T00:24:39.791Z,98582.16
2023-03-27T00:24:51.761Z,98583.19
2023-03-27T00:25:03.877Z,98592.06
2023-03-27T00:25:17.022Z,98583.38
2023-03-27T00:25:29.121Z,98585.97
2023-03-27T00:25:41.127Z,98585.31
2023-03-27T00:25:54.294Z,98586.31
2023-03-27T00:26:06.577Z,98586.88
2023-03-27T00:26:18.497Z,98590.13
2023-03-27T00:26:30.628Z,98587.47
2023-03-27T00:26:43.097Z,98592.84
2023-03-27T00:26:55.113Z,98591.78
2023-03-27T00:27:07.050Z,98583.31
2023-03-27T00:27:19.827Z,98593.41
2023-03-27T00:27:31.791Z,98586.56
2023-03-27T00:27:44.834Z,98590.25
2023-03-27T00:27:58.520Z,98589.91
2023-03-27T00:28:10.514Z,98584.63
2023-03-27T00:28:22.444Z,98584.41
2023-03-27T00:28:35.487Z,98589.00
2023-03-27T00:28:47.950Z,98589.09
2023-03-27T00:28:59.861Z,98599.16
2023-03-27T00:29:13.454Z,98596.22
2023-03-27T00:29:25.459Z,98597.22
2023-03-27T00:29:37.701Z,98591.16
2023-03-27T00:29:49.609Z,98588.34
2023-03-27T00:30:01.966Z,98584.75
2023-03-27T00:30:14.036Z,98585.22
2023-03-27T00:30:28.459Z,98590.31
2023-03-27T00:30:41.218Z,98585.13
2023-03-27T00:30:57.396Z,98586.13
2023-03-27T00:31:14.394Z,98585.72
2023-03-27T00:31:26.428Z,98592.88
2023-03-27T00:31:38.376Z,98587.91
2023-03-27T00:31:50.335Z,98594.50
2023-03-27T00:32:02.201Z,98590.00
2023-03-27T00:32:14.160Z,98589.16
2023-03-27T00:32:26.624Z,98587.38
2023-03-27T00:32:38.618Z,98596.94
2023-03-27T00:32:50.674Z,98592.72
2023-03-27T00:33:02.820Z,98588.94
2023-03-27T00:33:15.268Z,98597.72
2023-03-27T00:33:27.648Z,98597.84
2023-03-27T00:33:40.377Z,98590.97
2023-03-27T00:33:52.350Z,98593.81
2023-03-27T00:34:04.458Z,98601.44
2023-03-27T00:34:16.374Z,98597.84
2023-03-27T00:34:29.065Z,98600.31
2023-03-27T00:34:40.970Z,98597.09
2023-03-27T00:34:52.921Z,98596.25
2023-03-27T00:35:05.220Z,98600.66
2023-03-27T00:35:17.175Z,98604.84
2023-03-27T00:35:29.866Z,98600.75
2023-03-27T00:35:46.783Z,98594.88
2023-03-27T00:35:58.901Z,98601.75
2023-03-27T00:36:11.452Z,98602.31
2023-03-27T00:36:23.389Z,98599.84
2023-03-27T00:36:35.331Z,98607.00
2023-03-27T00:36:51.079Z,98605.13
2023-03-27T00:37:05.397Z,98600.38
2023-03-27T00:37:18.058Z,98608.00
2023-03-27T00:37:30.516Z,98614.31
2023-03-27T00:37:42.568Z,98616.97
2023-03-27T00:37:54.934Z,98610.94
2023-03-27T00:38:09.476Z,98600.81
2023-03-27T00:38:22.321Z,98605.63
2023-03-27T00:38:34.269Z,98601.34
2023-03-27T00:38:46.148Z,98614.38
2023-03-27T00:38:58.101Z,98607.34
2023-03-27T00:39:10.281Z,98608.91
2023-03-27T00:39:22.218Z,98610.72
2023-03-27T00:39:34.220Z,98610.59
2023-03-27T00:39:50.377Z,98608.91
2023-03-27T00:40:07.884Z,98616.84
2023-03-27T00:40:20.476Z,98616.19
2023-03-27T00:40:32.483Z,98621.22
2023-03-27T00:40:48.029Z,98617.69
2023-03-27T00:41:00.513Z,98620.94
2023-03-27T00:41:12.865Z,98620.25
2023-03-27T00:41:25.924Z,98622.84
2023-03-27T00:41:38.115Z,98618.56
2023-03-27T00:41:50.304Z,98615.97
2023-03-27T00:42:03.370Z,98610.00
2023-03-27T00:42:22.676Z,98618.56
2023-03-27T00:42:35.949Z,98615.75
2023-03-27T00:42:50.937Z,98620.63
2023-03-27T00:43:28.627Z,98619.56
2023-03-27T00:43:43.711Z,98626.31
2023-03-27T00:43:58.125Z,98622.94
2023-03-27T00:44:26.891Z,98623.47
2023-03-27T00:44:39.807Z,98622.06
2023-03-27T00:44:52.919Z,98625.31
2023-03-27T00:45:06.151Z,98630.63
2023-03-27T00:45:23.883Z,98631.47
2023-03-27T00:45:37.744Z,98630.09
2023-03-27T00:45:52.593Z,98627.09
2023-03-27T00:46:14.604Z,98626.25
2023-03-27T00:46:42.416Z,98615.44
2023-03-27T00:46:57.020Z,98625.31
2023-03-27T00:47:12.735Z,98624.31
2023-03-27T00:47:32.875Z,98623.69
2023-03-27T00:47:50.113Z,98631.38
2023-03-27T00:48:08.317Z,98629.84
2023-03-27T00:48:20.995Z,98627.47
2023-03-27T00:48:35.474Z,98634.22
2023-03-27T00:48:51.443Z,98633.38
2023-03-27T00:49:08.244Z,98629.34
2023-03-27T00:49:22.345Z,98635.38
2023-03-27T00:49:37.244Z,98632.00
2023-03-27T00:49:51.264Z,98631.81
2023-03-27T00:50:11.127Z,98638.88
2023-03-27T00:50:27.549Z,98636.34
2023-03-27T00:50:42.872Z,98640.88
2023-03-27T00:50:56.627Z,98628.59
2023-03-27T00:51:09.509Z,98636.13
2023-03-27T00:51:24.389Z,98636.22
2023-03-27T00:51:37.305Z,98633.63
2023-03-27T00:51:49.984Z,98634.44
2023-03-27T00:52:03.624Z,98634.44
2023-03-27T00:52:16.761Z,98640.53
2023-03-27T00:52:31.373Z,98634.75
2023-03-27T00:52:47.921Z,98635.59
2023-03-27T00:53:10.037Z,98636.50
2023-03-27T00:53:26.550Z,98632.19
2023-03-27T00:53:39.073Z,98638.13
2023-03-27T00:53:51.712Z,98638.72
2023-03-27T00:54:04.665Z,98637.78
2023-03-27T00:54:25.551Z,98641.34
2023-03-27T00:54:38.882Z,98637.91
2023-03-27T00:54:52.099Z,98636.34
2023-03-27T00:55:08.565Z,98643.38
2023-03-27T00:55:22.617Z,98643.59
2023-03-27T00:55:38.405Z,98649.44
2023-03-27T00:55:54.816Z,98643.75
2023-03-27T00:56:07.762Z,98645.19
2023-03-27T00:56:20.003Z,98648.75
2023-03-27T00:56:33.808Z,98647.09
2023-03-27T00:56:45.996Z,98641.97
2023-03-27T00:57:05.394Z,98643.22
2023-03-27T00:57:19.358Z,98651.50
2023-03-27T00:57:31.330Z,98646.22
2023-03-27T00:57:45.990Z,98648.19
2023-03-27T00:58:03.532Z,98646.31
2023-03-27T00:58:43.744Z,98654.88
2023-03-27T00:59:02.123Z,98654.34
2023-03-27T00:59:18.366Z,98656.69
2023-03-27T00:59:34.667Z,98654.25
2023-03-27T00:59:48.886Z,98660.63
2023-03-27T01:00:02.442Z,98642.63
2023-03-27T01:00:16.924Z,98656.19
2023-03-27T01:00:29.372Z,98658.25
2023-03-27T01:00:41.277Z,98659.75
2023-03-27T01:00:55.186Z,98653.75
2023-03-27T01:01:10.375Z,98663.22
2023-03-27T01:01:27.265Z,98659.75
2023-03-27T01:01:40.479Z,98658.25
2023-03-27T01:01:53.450Z,98656.47
2023-03-27T01:02:07.781Z,98667.59
2023-03-27T01:02:20.394Z,98651.75
2023-03-27T01:02:32.492Z,98665.72
2023-03-27T01:02:48.476Z,98662.25
2023-03-27T01:03:04.922Z,98660.75
2023-03-27T01:03:19.766Z,98659.25
2023-03-27T01:03:32.911Z,98656.81
2023-03-27T01:03:47.579Z,98664.34
2023-03-27T01:04:02.198Z,98658.38
2023-03-27T01:04:14.252Z,98669.56
2023-03-27T01:04:26.314Z,98662.91
2023-03-27T01:04:39.771Z,98661.91
2023-03-27T01:04:53.088Z,98672.47
2023-03-27T01:05:06.290Z,98666.34
2023-03-27T01:05:20.194Z,98667.25
2023-03-27T01:05:33.222Z,98662.84
2023-03-27T01:05:46.011Z,98668.06
2023-03-27T01:06:01.545Z,98661.81
2023-03-27T01:06:16.870Z,98664.19
2023-03-27T01:06:31.117Z,98663.41
2023-03-27T01:06:43.429Z,98664.91
2023-03-27T01:06:56.593Z,98661.22
2023-03-27T01:07:11.256Z,98668.84
2023-03-27T01:07:25.066Z,98663.72
2023-03-27T01:07:39.504Z,98661.72
2023-03-27T01:08:01.032Z,98667.63
2023-03-27T01:08:15.361Z,98672.47
2023-03-27T01:08:31.934Z,98667.78
2023-03-27T01:08:45.454Z,98666.13
2023-03-27T01:08:57.364Z,98662.53
2023-03-27T01:09:09.511Z,98671.75
2023-03-27T01:09:21.586Z,98668.56
2023-03-27T01:09:33.800Z,98667.63
2023-03-27T01:09:45.929Z,98661.41
2023-03-27T01:09:57.890Z,98670.69
2023-03-27T01:10:10.789Z,98666.88
2023-03-27T01:10:30.649Z,98671.84
2023-03-27T01:10:59.230Z,98666.78
2023-03-27T01:11:46.547Z,98668.56
2023-03-27T01:12:08.998Z,98673.13
2023-03-27T01:12:38.914Z,98665.63
2023-03-27T01:13:26.017Z,98676.88
2023-03-27T01:13:46.648Z,98675.59
2023-03-27T01:14:12.218Z,98678.78
2023-03-27T01:14:49.008Z,98685.09
2023-03-27T01:15:12.247Z,98677.47
2023-03-27T01:16:14.895Z,98685.94
2023-03-27T01:16:47.822Z,98694.94
2023-03-27T01:17:38.528Z,98691.50
2023-03-27T01:17:56.489Z,98698.72
2023-03-27T01:18:30.483Z,98693.84
2023-03-27T01:19:07.142Z,98698.63
2023-03-27T01:19:41.773Z,98700.13
2023-03-27T01:20:16.755Z,98688.75
2023-03-27T01:20:32.435Z,98698.81
2023-03-27T01:21:03.763Z,98709.25
2023-03-27T01:21:22.410Z,98706.78
2023-03-27T01:21:59.964Z,98705.28
2023-03-27T01:22:30.617Z,98699.75
2023-03-27T01:23:35.979Z,98706.50
2023-03-27T01:24:14.510Z,98710.34
2023-03-27T01:24:41.470Z,98703.00
2023-03-27T01:24:59.143Z,98708.47
2023-03-27T01:25:44.468Z,98709.78
2023-03-27T01:26:04.270Z,98710.16
2023-03-27T01:26:57.717Z,98705.84
2023-03-27T01:27:20.752Z,98709.97
2023-03-27T01:28:05.971Z,98704.59
2023-03-27T01:28:42.645Z,98715.78
2023-03-27T01:29:03.589Z,98717.13
2023-03-27T01:29:53.383Z,98717.72
2023-03-27T01:30:21.220Z,98717.84
2023-03-27T01:31:02.985Z,98722.09
2023-03-27T01:31:27.587Z,98724.25
2023-03-27T01:31:54.354Z,98727.59
2023-03-27T01:32:22.014Z,98722.47
2023-03-27T01:32:40.095Z,98722.56
2023-03-27T01:33:21.490Z,98723.72
2023-03-27T01:33:36.304Z,98723.13
2023-03-27T01:34:00.774Z,98716.59
2023-03-27T01:34:34.339Z,98737.53
2023-03-27T01:35:28.777Z,98729.78
2023-03-27T01:36:13.462Z,98741.31
2023-03-27T01:36:37.438Z,98732.25
2023-03-27T01:37:02.550Z,98733.06
2023-03-27T01:37:39.139Z,98740.31
2023-03-27T01:38:15.843Z,98743.88
2023-03-27T01:38:56.942Z,98746.56
2023-03-27T01:39:19.710Z,98749.22
2023-03-27T01:39:53.707Z,98752.66
2023-03-27T01:40:31.787Z,98748.66
2023-03-27T01:41:14.650Z,98752.84
2023-03-27T01:41:47.483Z,98749.06
2023-03-27T01:42:31.446Z,98752.06
2023-03-27T01:42:46.192Z,98750.25
2023-03-27T01:43:07.052Z,98746.06
2023-03-27T01:43:24.722Z,98750.63
2023-03-27T01:43:45.828Z,98750.25
2023-03-27T01:44:11.622Z,98754.78
2023-03-27T01:44:43.689Z,98754.91
2023-03-27T01:44:57.148Z,98761.81
2023-03-27T01:45:18.192Z,98754.00
2023-03-27T01:45:39.908Z,98762.50
2023-03-27T01:45:59.582Z,98760.94
2023-03-27T01:46:23.142Z,98762.28
2023-03-27T01:46:41.762Z,98765.44
2023-03-27T01:47:09.778Z,98754.19
2023-03-27T01:47:31.785Z,98764.59
2023-03-27T01:48:10.638Z,98761.88
2023-03-27T01:49:04.584Z,98764.28
2023-03-27T01:49:31.110Z,98767.38
2023-03-27T01:50:03.389Z,98760.03
2023-03-27T01:50:21.645Z,98765.00
2023-03-27T01:50:42.165Z,98761.50
2023-03-27T01:51:01.302Z,98767.69
2023-03-27T01:51:21.076Z,98768.81
2023-03-27T01:51:36.848Z,98777.34
2023-03-27T01:52:04.737Z,98770.56
2023-03-27T01:52:24.316Z,98773.84
2023-03-27T01:52:41.106Z,98773.66
2023-03-27T01:52:59.724Z,98776.03
2023-03-27T01:53:26.950Z,98764.75
2023-03-27T01:53:44.602Z,98773.31
2023-03-27T01:54:04.952Z,98777.88
2023-03-27T01:54:21.825Z,98785.41
2023-03-27T01:54:41.937Z,98779.59
2023-03-27T01:55:03.333Z,98783.25
2023-03-27T01:55:19.389Z,98783.19
2023-03-27T01:55:36.422Z,98777.03
2023-03-27T01:55:58.371Z,98773.59
2023-03-27T01:56:26.534Z,98784.03
2023-03-27T01:56:46.096Z,98784.16
2023-03-27T01:57:04.189Z,98788.66
2023-03-27T01:57:22.174Z,98788.47
2023-03-27T01:57:49.181Z,98786.94
2023-03-27T01:58:13.853Z,98787.88
2023-03-27T01:58:33.118Z,98786.06
2023-03-27T01:58:49.187Z,98782.16
2023-03-27T01:59:07.392Z,98790.91
2023-03-27T01:59:22.990Z,98782.19
2023-03-27T01:59:41.977Z,98793.56
2023-03-27T02:00:17.547Z,98800.63
2023-03-27T02:00:51.444Z,98791.72
2023-03-27T02:01:05.490Z,98789.19
2023-03-27T02:01:25.245Z,98783.72
2023-03-27T02:01:42.251Z,98806.50
2023-03-27T02:02:19.170Z,98790.38
2023-03-27T02:02:33.275Z,98790.44
2023-03-27T02:02:51.454Z,98797.94
2023-03-27T02:03:20.537Z,98795.34
2023-03-27T02:03:45.417Z,98801.31
2023-03-27T02:04:01.780Z,98794.66
2023-03-27T02:04:30.704Z,98799.78
2023-03-27T02:04:59.591Z,98800.44
2023-03-27T02:05:19.094Z,98805.66
2023-03-27T02:05:39.918Z,98798.88
2023-03-27T02:05:58.586Z,98804.63
2023-03-27T02:06:24.689Z,98803.56
2023-03-27T02:06:47.013Z,98814.84
2023-03-27T02:07:02.759Z,98813.97
2023-03-27T02:07:21.828Z,98803.66
2023-03-27T02:07:42.670Z,98810.66
2023-03-27T02:08:01.961Z,98813.78
2023-03-27T02:08:24.685Z,98806.28
2023-03-27T02:09:03.222Z,98807.81
2023-03-27T02:09:22.853Z,98810.56
2023-03-27T02:09:44.117Z,98816.38
2023-03-27T02:10:01.798Z,98820.78
2023-03-27T02:10:19.598Z,98819.44
2023-03-27T02:10:37.650Z,98820.41
2023-03-27T02:10:56.134Z,98818.28
2023-03-27T02:11:08.442Z,98812.31
2023-03-27T02:11:24.350Z,98806.78
2023-03-27T02:11:42.531Z,98818.81
2023-03-27T02:12:04.212Z,98815.75
2023-03-27T02:12:23.869Z,98829.59
2023-03-27T02:12:45.457Z,98824.66
2023-03-27T02:13:04.900Z,98819.88
2023-03-27T02:13:21.966Z,98819.66
2023-03-27T02:13:39.159Z,98822.88
2023-03-27T02:13:58.209Z,98830.78
2023-03-27T02:14:15.836Z,98824.59
2023-03-27T02:14:34.659Z,98822.81
2023-03-27T02:15:23.611Z,98833.44
2023-03-27T02:15:36.198Z,98825.00
2023-03-27T02:15:50.221Z,98825.09
2023-03-27T02:16:06.622Z,98834.81
2023-03-27T02:16:23.101Z,98831.97
2023-03-27T02:16:42.566Z,98828.66
2023-03-27T02:17:02.023Z,98826.09
2023-03-27T02:17:16.811Z,98839.19
2023-03-27T02:17:33.917Z,98835.75
2023-03-27T02:17:56.882Z,98835.59
2023-03-27T02:18:13.413Z,98832.25
2023-03-27T02:18:47.568Z,98837.38
2023-03-27T02:19:48.702Z,98829.97
2023-03-27T02:20:16.214Z,98838.81
2023-03-27T02:20:28.684Z,98840.44
2023-03-27T02:20:41.625Z,98830.19
2023-03-27T02:20:53.958Z,98833.50
2023-03-27T02:21:06.344Z,98835.06
2023-03-27T02:21:18.441Z,98842.75
2023-03-27T02:21:33.705Z,98829.34
2023-03-27T02:21:48.135Z,98843.72
2023-03-27T02:22:00.275Z,98826.66
2023-03-27T02:22:12.551Z,98836.75
2023-03-27T02:22:38.050Z,98840.13
2023-03-27T02:22:51.392Z,98839.50
2023-03-27T02:23:04.331Z,98841.38
2023-03-27T02:23:16.434Z,98838.72
2023-03-27T02:23:30.729Z,98838.72
2023-03-27T02:23:43.547Z,98842.22
2023-03-27T02:23:56.599Z,98843.03
2023-03-27T02:24:08.956Z,98847.16
2023-03-27T02:24:21.014Z,98849.91
2023-03-27T02:24:35.513Z,98849.75
2023-03-27T02:24:48.875Z,98834.38
2023-03-27T02:25:00.916Z,98842.94
2023-03-27T02:25:34.181Z,98847.56
2023-03-27T02:25:46.720Z,98854.56
2023-03-27T02:26:00.259Z,98848.53
2023-03-27T02:26:13.530Z,98850.06
2023-03-27T02:26:25.525Z,98858.94
2023-03-27T02:26:37.899Z,98856.25
2023-03-27T02:26:55.606Z,98852.88
2023-03-27T02:27:18.386Z,98847.38
2023-03-27T02:27:45.637Z,98855.81
2023-03-27T02:28:12.579Z,98855.97
2023-03-27T02:28:41.721Z,98853.47
2023-03-27T02:28:59.361Z,98857.81
2023-03-27T02:30:02.125Z,98855.91
2023-03-27T02:30:22.090Z,98859.06
2023-03-27T02:30:44.627Z,98862.31
2023-03-27T02:31:33.516Z,98862.41
2023-03-27T02:31:58.299Z,98864.13
2023-03-27T02:32:32.868Z,98869.38
2023-03-27T02:32:59.345Z,98866.28
2023-03-27T02:33:34.181Z,98870.59
2023-03-27T02:33:56.603Z,98868.13
2023-03-27T02:34:35.922Z,98867.19
2023-03-27T02:35:01.474Z,98873.50
2023-03-27T02:35:35.505Z,98865.63
2023-03-27T02:36:11.143Z,98874.91
2023-03-27T02:36:44.887Z,98876.72
2023-03-27T02:36:57.018Z,98875.06
2023-03-27T02:37:16.086Z,98872.34
2023-03-27T02:37:49.747Z,98883.59
2023-03-27T02:38:09.307Z,98883.59
2023-03-27T02:38:41.916Z,98885.50
2023-03-27T02:39:03.450Z,98878.44
2023-03-27T02:39:23.772Z,98880.22
2023-03-27T02:40:14.840Z,98846.03
2023-03-27T02:40:32.484Z,98880.28
2023-03-27T02:41:23.034Z,98886.56
2023-03-27T02:41:42.070Z,98891.63
2023-03-27T02:42:14.219Z,98885.81
2023-03-27T02:42:32.179Z,98894.25
2023-03-27T02:42:59.929Z,98892.81
2023-03-27T02:43:30.469Z,98897.09
2023-03-27T02:43:50.976Z,98894.56
2023-03-27T02:44:12.695Z,98896.09
2023-03-27T02:44:33.108Z,98892.56
2023-03-27T02:44:56.655Z,98885.56
2023-03-27T02:45:24.119Z,98900.97
2023-03-27T02:45:50.316Z,98893.22
2023-03-27T02:46:26.140Z,98896.31
2023-03-27T02:46:43.808Z,98899.22
2023-03-27T02:47:11.426Z,98904.22
2023-03-27T02:47:28.476Z,98899.06
2023-03-27T02:47:44.659Z,98905.06
2023-03-27T02:48:12.942Z,98895.72
2023-03-27T02:48:34.194Z,98898.22
2023-03-27T02:48:51.970Z,98914.44
2023-03-27T02:49:09.601Z,98909.44
2023-03-27T02:49:31.359Z,98909.44
2023-03-27T02:49:48.937Z,98894.06
2023-03-27T02:50:10.003Z,98911.19
2023-03-27T02:50:28.455Z,98909.34
2023-03-27T02:50:54.256Z,98915.34
2023-03-27T02:51:15.260Z,98905.22
2023-03-27T02:51:31.351Z,98912.75
2023-03-27T02:51:52.980Z,98913.91
2023-03-27T02:52:13.660Z,98917.38
2023-03-27T02:52:37.589Z,98919.94
2023-03-27T02:52:58.773Z,98922.53
2023-03-27T02:53:16.207Z,98920.19
2023-03-27T02:53:32.387Z,98930.41
2023-03-27T02:53:52.117Z,98925.53
2023-03-27T02:54:14.009Z,98920.28
2023-03-27T02:54:32.399Z,98924.19
2023-03-27T02:54:50.824Z,98923.41
2023-03-27T02:55:11.751Z,98932.16
2023-03-27T02:55:35.459Z,98921.91
2023-03-27T02:55:54.237Z,98926.88
2023-03-27T02:56:08.459Z,98927.78
2023-03-27T02:56:23.977Z,98930.19
2023-03-27T02:56:44.689Z,98936.31
2023-03-27T02:57:01.510Z,98930.41
2023-03-27T02:57:18.599Z,98933.81
2023-03-27T02:57:39.374Z,98932.31
2023-03-27T02:57:59.476Z,98934.63
2023-03-27T02:58:26.994Z,98936.44
2023-03-27T02:58:57.132Z,98939.63
2023-03-27T02:59:13.163Z,98935.34
2023-03-27T02:59:35.406Z,98939.81
2023-03-27T02:59:54.069Z,98944.09
2023-03-27T03:00:19.754Z,98944.44
2023-03-27T03:00:37.422Z,98939.97
2023-03-27T03:00:52.051Z,98943.47
2023-03-27T03:01:10.848Z,98942.34
2023-03-27T03:01:26.622Z,98940.56
2023-03-27T03:01:40.299Z,98935.44
2023-03-27T03:01:57.746Z,98946.75
2023-03-27T03:02:16.294Z,98940.72
2023-03-27T03:02:32.834Z,98944.75
2023-03-27T03:02:46.601Z,98938.06
2023-03-27T03:03:13.900Z,98942.47
2023-03-27T03:03:33.561Z,98941.00
2023-03-27T03:03:53.639Z,98941.81
2023-03-27T03:04:19.856Z,98949.59
2023-03-27T03:04:41.845Z,98944.44
2023-03-27T03:05:03.921Z,98948.53
2023-03-27T03:05:22.066Z,98948.75
2023-03-27T03:05:36.943Z,98948.88
2023-03-27T03:05:50.790Z,98950.59
2023-03-27T03:06:11.085Z,98947.94
2023-03-27T03:06:29.924Z,98958.00
2023-03-27T03:06:44.095Z,98942.34
2023-03-27T03:06:59.093Z,98938.94
2023-03-27T03:07:11.476Z,98958.00
2023-03-27T03:07:27.591Z,98951.91
2023-03-27T03:07:40.103Z,98954.47
2023-03-27T03:07:54.199Z,98959.88
2023-03-27T03:08:10.043Z,98958.13
2023-03-27T03:08:22.146Z,98962.47
2023-03-27T03:08:38.447Z,98963.41
2023-03-27T03:08:50.747Z,98959.19
2023-03-27T03:09:06.722Z,98944.50
2023-03-27T03:09:19.063Z,98957.03
2023-03-27T03:09:31.354Z,98947.69
2023-03-27T03:09:44.750Z,98958.81
2023-03-27T03:09:56.669Z,98957.31
2023-03-27T03:10:11.496Z,98953.06
2023-03-27T03:10:24.767Z,98957.41
2023-03-27T03:10:43.383Z,98961.88
2023-03-27T03:11:01.462Z,98957.31
2023-03-27T03:11:14.780Z,98965.84
2023-03-27T03:11:26.714Z,98962.53
2023-03-27T03:11:46.274Z,98959.84
2023-03-27T03:11:59.082Z,98969.34
2023-03-27T03:12:11.068Z,98966.25
2023-03-27T03:12:23.190Z,98950.78
2023-03-27T03:12:35.132Z,98965.47
2023-03-27T03:12:47.083Z,98967.22
2023-03-27T03:12:59.045Z,98955.19
2023-03-27T03:13:11.090Z,98965.34
2023-03-27T03:13:23.025Z,98970.63
2023-03-27T03:13:35.016Z,98967.34
2023-03-27T03:13:46.925Z,98969.00
2023-03-27T03:13:58.849Z,98971.66
2023-03-27T03:14:10.882Z,98971.56
2023-03-27T03:14:30.394Z,98976.72
2023-03-27T03:14:46.608Z,98978.44
2023-03-27T03:14:58.580Z,98979.28
2023-03-27T03:15:11.145Z,98981.03
2023-03-27T03:15:23.086Z,98982.81
2023-03-27T03:15:35.035Z,98976.00
2023-03-27T03:15:48.351Z,98970.03
2023-03-27T03:16:01.523Z,98980.09
2023-03-27T03:16:13.651Z,98979.13
2023-03-27T03:16:26.397Z,98979.03
2023-03-27T03:16:38.448Z,98978.19
2023-03-27T03:16:50.396Z,98981.72
2023-03-27T03:17:05.495Z,98980.91
2023-03-27T03:17:17.628Z,98981.97
2023-03-27T03:17:29.588Z,98984.44
2023-03-27T03:17:41.554Z,98981.16
2023-03-27T03:17:53.799Z,98980.19
2023-03-27T03:18:07.272Z,98986.03
2023-03-27T03:18:20.022Z,98986.16
2023-03-27T03:18:32.035Z,98975.78
2023-03-27T03:18:43.964Z,98975.84
2023-03-27T03:18:56.654Z,98982.69
2023-03-27T03:19:08.913Z,98989.25
2023-03-27T03:19:21.687Z,98988.31
2023-03-27T03:19:33.608Z,98979.69
2023-03-27T03:19:45.507Z,98997.03
2023-03-27T03:19:57.763Z,98985.06
2023-03-27T03:20:10.446Z,98991.91
2023-03-27T03:20:23.869Z,98987.66
2023-03-27T03:20:35.767Z,98987.72
2023-03-27T03:20:47.670Z,98988.47
2023-03-27T03:20:59.988Z,98984.28
2023-03-27T03:21:11.997Z,98982.56
2023-03-27T03:21:24.303Z,98987.06
2023-03-27T03:21:36.268Z,98988.06
2023-03-27T03:21:49.419Z,98992.22
2023-03-27T03:22:01.625Z,98986.88
2023-03-27T03:22:13.907Z,98988.63
2023-03-27T03:22:26.303Z,98991.19
2023-03-27T03:22:39.906Z,98994.63
2023-03-27T03:22:51.890Z,98995.44
2023-03-27T03:23:04.022Z,98994.59
2023-03-27T03:23:15.938Z,99001.34
2023-03-27T03:23:27.857Z,99001.50
2023-03-27T03:23:39.795Z,99004.03
2023-03-27T03:23:58.057Z,98996.31
2023-03-27T03:24:12.242Z,98996.19
2023-03-27T03:24:24.194Z,99003.94
2023-03-27T03:24:36.105Z,99003.03
2023-03-27T03:24:48.236Z,99005.47
2023-03-27T03:25:00.200Z,99001.22
2023-03-27T03:25:12.157Z,98997.72
2023-03-27T03:25:25.627Z,99002.22
2023-03-27T03:25:37.524Z,99006.63
2023-03-27T03:25:56.841Z,99002.31
2023-03-27T03:26:08.877Z,98995.50
2023-03-27T03:26:21.339Z,99002.28
2023-03-27T03:26:33.552Z,99003.81
2023-03-27T03:26:45.490Z,98996.97
2023-03-27T03:26:57.705Z,99010.81
2023-03-27T03:27:10.676Z,99008.38
2023-03-27T03:27:25.451Z,99001.59
2023-03-27T03:27:39.020Z,99011.66
2023-03-27T03:27:58.638Z,99001.41
2023-03-27T03:28:10.540Z,99010.88
2023-03-27T03:28:25.952Z,99009.09
2023-03-27T03:28:37.951Z,99013.28
2023-03-27T03:29:00.050Z,99013.28
2023-03-27T03:29:14.723Z,99015.31
2023-03-27T03:29:30.072Z,99012.81
2023-03-27T03:29:44.199Z,99013.59
2023-03-27T03:29:56.812Z,99013.59
2023-03-27T03:30:17.617Z,99014.50
2023-03-27T03:30:30.481Z,99015.16